< < Back
Terminal Aerodrome Forecast


Current Version              Previous Versions:   1  2  3  4  5  6  7  8  9  

Terminal Aerodrome Forecast

148
FTUS44 KBMX 301700
TAFBHM
TAF
KBHM 301722Z 3018/3118 01006KT P6SM SCT050=

Latest METAR

259
SAUS70 KWBC 312100 RRE
MTRBHM
METAR KBHM 312053Z 35007KT 10SM FEW050 SCT110 BKN200 27/16 A3007 RMK AO2
RAE42 SLP173 P0000 60000 T02720156 57006


USA.gov is the U.S. government's official web portal to all federal, state and local government web resources and services.